Time;durP1;ratioP1;P1;durP2;ratioP2;P2;SDS_P1;SDS_P2;PMS_P1;PMS_P2;Temp;Humidity;BMP_temperature;BMP_pressure;BME280_temperature;BME280_humidity;BME280_pressure;Samples;Min_cycle;Max_cycle;Signal;HPM_P1;HPM_P2
2024/01/03 00:00:06;;;;;;;1.27;0.28;;;8.70;99.90;;;;;;5082669;28;20409;-67
2024/01/03 00:02:32;;;;;;;0.85;0.38;;;8.70;99.90;;;;;;5086120;28;20048;-67
2024/01/03 00:04:58;;;;;;;1.33;0.30;;;8.70;99.90;;;;;;5088746;28;20101;-67
2024/01/03 00:07:24;;;;;;;0.60;0.28;;;8.70;99.90;;;;;;5088292;28;20036;-67
2024/01/03 00:09:54;;;;;;;0.73;0.22;;;8.70;99.90;;;;;;5088169;28;20032;-69
2024/01/03 00:12:24;;;;;;;0.60;0.13;;;8.80;99.90;;;;;;5079276;28;20050;-68
2024/01/03 00:14:51;;;;;;;1.40;0.32;;;8.90;99.90;;;;;;5105917;28;20027;-69
2024/01/03 00:17:18;;;;;;;0.65;0.35;;;8.90;99.90;;;;;;5093029;28;20448;-67
2024/01/03 00:19:44;;;;;;;0.40;0.13;;;8.80;99.90;;;;;;5085990;28;20209;-68
2024/01/03 00:22:13;;;;;;;1.30;0.20;;;8.90;99.90;;;;;;5109088;28;20759;-68
2024/01/03 00:24:46;;;;;;;2.40;0.30;;;8.80;99.90;;;;;;5096161;28;20093;-68
2024/01/03 00:27:12;;;;;;;1.70;0.20;;;8.80;99.90;;;;;;5091635;28;20028;-67
2024/01/03 00:29:56;;;;;;;2.50;0.13;;;8.80;99.90;;;;;;5088862;28;20118;-68
2024/01/03 00:32:22;;;;;;;0.50;0.20;;;8.90;99.90;;;;;;5092560;28;20085;-69
2024/01/03 00:34:48;;;;;;;0.80;0.30;;;9.00;99.90;;;;;;5082350;28;20020;-68
2024/01/03 00:37:21;;;;;;;0.40;0.10;;;8.90;99.90;;;;;;5090947;28;20024;-68
2024/01/03 00:39:47;;;;;;;0.55;0.20;;;8.90;99.90;;;;;;5093414;28;20031;-69
2024/01/03 00:42:13;;;;;;;1.13;0.20;;;8.90;99.90;;;;;;5095425;28;20035;-67
2024/01/03 00:44:38;;;;;;;0.52;0.20;;;9.00;99.90;;;;;;5091963;28;20020;-67
2024/01/03 00:47:04;;;;;;;1.73;0.40;;;8.90;99.90;;;;;;5091170;28;20028;-66
2024/01/03 00:49:30;;;;;;;1.33;0.30;;;8.90;99.90;;;;;;5091438;28;20497;-67
2024/01/03 00:51:56;;;;;;;2.05;0.25;;;8.90;99.90;;;;;;5094532;28;20032;-67
2024/01/03 00:54:24;;;;;;;1.25;0.20;;;8.90;99.90;;;;;;5091895;28;20409;-67
2024/01/03 00:56:50;;;;;;;0.73;0.30;;;8.90;99.90;;;;;;5099940;28;20036;-68
2024/01/03 00:59:17;;;;;;;0.85;0.40;;;8.90;99.90;;;;;;5087388;28;20032;-66
2024/01/03 01:01:44;;;;;;;1.02;0.32;;;8.90;99.90;;;;;;5091781;28;20068;-66
2024/01/03 01:04:10;;;;;;;1.58;0.28;;;8.80;99.90;;;;;;5089443;28;20555;-67
2024/01/03 01:06:36;;;;;;;0.45;0.17;;;8.70;99.90;;;;;;5090858;28;20100;-66
2024/01/03 01:09:04;;;;;;;2.78;0.30;;;8.80;99.90;;;;;;5089706;28;20553;-67
2024/01/03 01:11:30;;;;;;;1.33;0.43;;;8.80;99.90;;;;;;5084440;28;20089;-67
2024/01/03 01:13:55;;;;;;;1.23;0.50;;;8.80;99.90;;;;;;5090151;28;20097;-69
2024/01/03 01:16:21;;;;;;;1.95;0.35;;;8.80;99.90;;;;;;5073284;28;20368;-67
2024/01/03 01:18:47;;;;;;;1.02;0.20;;;8.80;99.90;;;;;;5088253;28;20114;-66
2024/01/03 01:21:13;;;;;;;0.70;0.30;;;8.90;99.90;;;;;;5083112;28;20100;-68
2024/01/03 01:23:42;;;;;;;1.15;0.30;;;8.80;99.90;;;;;;5090457;28;20036;-67
2024/01/03 01:26:08;;;;;;;2.05;0.38;;;8.80;99.90;;;;;;5077235;28;20545;-66
2024/01/03 01:28:34;;;;;;;1.05;0.45;;;8.80;99.90;;;;;;5090927;28;20033;-66
2024/01/03 01:30:59;;;;;;;1.90;0.30;;;8.90;99.90;;;;;;5090251;28;20375;-68
2024/01/03 01:33:25;;;;;;;1.55;0.40;;;8.90;99.90;;;;;;5066309;28;20028;-66
2024/01/03 01:35:50;;;;;;;2.35;0.40;;;9.00;99.90;;;;;;5077598;28;20033;-67
2024/01/03 01:38:16;;;;;;;1.15;0.40;;;9.00;99.90;;;;;;5068753;28;20854;-66
2024/01/03 01:40:42;;;;;;;2.20;0.40;;;9.10;99.90;;;;;;5090352;28;20035;-67
2024/01/03 01:43:08;;;;;;;4.18;0.60;;;9.10;99.90;;;;;;5087686;28;20036;-66
2024/01/03 01:45:33;;;;;;;3.75;0.40;;;9.10;99.90;;;;;;5072365;28;20028;-67
2024/01/03 01:48:00;;;;;;;2.53;0.40;;;9.10;99.90;;;;;;5089268;28;20528;-66
2024/01/03 01:50:26;;;;;;;5.07;0.50;;;9.00;99.90;;;;;;5067989;28;20024;-67
2024/01/03 01:52:53;;;;;;;3.47;0.55;;;9.00;99.90;;;;;;5085032;28;20117;-66
2024/01/03 01:55:20;;;;;;;1.75;0.40;;;8.90;99.90;;;;;;5081392;28;20028;-66
2024/01/03 01:57:47;;;;;;;1.05;0.35;;;8.90;99.90;;;;;;5085568;28;20036;-67
2024/01/03 02:00:14;;;;;;;3.05;0.57;;;8.80;99.90;;;;;;5089031;28;20028;-66
2024/01/03 02:02:42;;;;;;;1.70;0.45;;;8.80;99.90;;;;;;5064772;28;20060;-66
2024/01/03 02:05:09;;;;;;;3.53;0.50;;;8.80;99.90;;;;;;5067080;28;20036;-65
2024/01/03 02:07:35;;;;;;;1.40;0.50;;;8.80;99.90;;;;;;5069833;28;20043;-66
2024/01/03 02:10:01;;;;;;;1.23;0.40;;;8.70;99.90;;;;;;5069193;28;20718;-65
2024/01/03 02:12:28;;;;;;;2.55;0.45;;;8.60;99.90;;;;;;5047301;28;20102;-65
2024/01/03 02:14:54;;;;;;;6.45;0.50;;;8.70;99.90;;;;;;5069167;28;20025;-66
2024/01/03 02:17:21;;;;;;;4.57;0.60;;;8.70;99.90;;;;;;5051229;28;20668;-65
2024/01/03 02:19:47;;;;;;;3.75;0.57;;;8.70;99.90;;;;;;5058676;28;20032;-65
2024/01/03 02:22:13;;;;;;;3.45;0.63;;;8.70;99.90;;;;;;5066175;28;20078;-66
2024/01/03 02:24:38;;;;;;;2.35;0.50;;;8.70;99.90;;;;;;5051695;28;20029;-65
2024/01/03 02:27:04;;;;;;;2.13;0.38;;;8.70;99.90;;;;;;5068714;28;20029;-64
2024/01/03 02:29:30;;;;;;;3.92;0.40;;;8.70;99.90;;;;;;5057739;28;20568;-66
2024/01/03 02:31:55;;;;;;;1.10;0.32;;;8.60;99.90;;;;;;5066814;28;20112;-65
2024/01/03 02:34:21;;;;;;;2.13;0.40;;;8.60;99.90;;;;;;5046956;28;20044;-66
2024/01/03 02:36:50;;;;;;;0.90;0.40;;;8.60;99.90;;;;;;5068340;28;20430;-66
2024/01/03 02:39:15;;;;;;;1.77;0.60;;;8.70;99.90;;;;;;5068631;28;20312;-66
2024/01/03 02:41:41;;;;;;;1.52;0.40;;;8.70;99.90;;;;;;5065997;28;20039;-67
2024/01/03 02:44:07;;;;;;;0.90;0.40;;;8.70;99.90;;;;;;5068939;28;20490;-66
2024/01/03 02:46:32;;;;;;;3.85;0.47;;;8.60;99.90;;;;;;5069482;28;20033;-65
2024/01/03 02:48:58;;;;;;;1.88;0.17;;;8.60;99.90;;;;;;5053219;28;20037;-69
2024/01/03 02:51:23;;;;;;;1.02;0.13;;;8.60;99.90;;;;;;5039451;28;20033;-66
2024/01/03 02:53:49;;;;;;;0.45;0.20;;;8.70;99.90;;;;;;5061074;28;20490;-67
2024/01/03 02:56:16;;;;;;;0.90;0.25;;;8.70;99.90;;;;;;5048584;28;20028;-66
2024/01/03 02:58:41;;;;;;;0.77;0.30;;;8.70;99.90;;;;;;5049292;28;20041;-66
2024/01/03 03:01:07;;;;;;;0.63;0.20;;;8.70;99.90;;;;;;5070426;28;20063;-66
2024/01/03 03:03:33;;;;;;;0.70;0.10;;;8.70;99.90;;;;;;5070577;28;20451;-66
2024/01/03 03:05:59;;;;;;;0.85;0.40;;;8.70;99.90;;;;;;5089307;28;20023;-68
2024/01/03 03:08:24;;;;;;;1.33;0.30;;;8.60;99.90;;;;;;5088628;28;20089;-68
2024/01/03 03:10:50;;;;;;;1.85;0.10;;;8.60;99.90;;;;;;5088389;28;20035;-68
2024/01/03 03:13:16;;;;;;;1.50;0.32;;;8.60;99.90;;;;;;5088617;28;20028;-68
2024/01/03 03:15:42;;;;;;;0.70;0.13;;;8.70;99.90;;;;;;5089282;28;20051;-68
2024/01/03 03:18:09;;;;;;;0.68;0.20;;;8.60;99.90;;;;;;5088215;28;20079;-69
2024/01/03 03:20:35;;;;;;;1.08;0.30;;;8.60;99.90;;;;;;5083940;28;20058;-68
2024/01/03 03:23:00;;;;;;;0.95;0.22;;;8.60;99.90;;;;;;5087196;28;20038;-71
2024/01/03 03:25:26;;;;;;;7.30;0.30;;;8.60;99.90;;;;;;5074598;28;20119;-69
2024/01/03 03:27:51;;;;;;;3.92;0.30;;;8.60;99.90;;;;;;5088965;28;20042;-69
2024/01/03 03:30:17;;;;;;;1.60;0.30;;;8.50;99.90;;;;;;5086462;28;20102;-69
2024/01/03 03:32:45;;;;;;;2.05;0.20;;;8.40;99.90;;;;;;5088628;28;20368;-68
2024/01/03 03:35:12;;;;;;;1.38;0.20;;;8.30;99.90;;;;;;5088226;28;20137;-67
2024/01/03 03:37:38;;;;;;;1.85;0.32;;;8.30;99.90;;;;;;5068911;28;20082;-69
2024/01/03 03:40:04;;;;;;;2.47;0.50;;;8.20;99.90;;;;;;5088346;28;20474;-71
2024/01/03 03:42:29;;;;;;;1.02;0.30;;;8.20;99.90;;;;;;5070430;28;20036;-69
2024/01/03 03:44:55;;;;;;;1.02;0.30;;;8.20;99.90;;;;;;5088901;28;20050;-67
2024/01/03 03:47:21;;;;;;;1.70;0.40;;;8.20;99.90;;;;;;5076566;28;20028;-68
2024/01/03 03:49:46;;;;;;;1.90;0.30;;;8.10;99.90;;;;;;5076278;28;20036;-68
2024/01/03 03:52:12;;;;;;;1.50;0.30;;;8.10;99.90;;;;;;5081009;28;20025;-67
2024/01/03 03:54:37;;;;;;;0.82;0.32;;;8.10;99.90;;;;;;5073807;28;20401;-68
2024/01/03 03:57:03;;;;;;;2.53;0.30;;;8.00;99.90;;;;;;5087967;28;20032;-71
2024/01/03 03:59:29;;;;;;;1.65;0.40;;;8.00;99.90;;;;;;5069018;28;20118;-67
2024/01/03 04:01:54;;;;;;;6.05;0.50;;;7.90;99.90;;;;;;5085479;28;20490;-68
2024/01/03 04:04:21;;;;;;;1.13;0.30;;;7.90;99.90;;;;;;5081990;28;20020;-68
2024/01/03 04:06:47;;;;;;;1.35;0.43;;;7.90;99.90;;;;;;5081761;28;20035;-69
2024/01/03 04:09:13;;;;;;;0.85;0.43;;;7.90;99.90;;;;;;5082524;28;20040;-68
2024/01/03 04:11:40;;;;;;;1.25;0.30;;;8.00;99.90;;;;;;5086848;28;20039;-66
2024/01/03 04:14:07;;;;;;;0.77;0.20;;;7.90;99.90;;;;;;5081613;28;20032;-70
2024/01/03 04:16:33;;;;;;;1.55;0.40;;;8.00;99.90;;;;;;5080465;28;20024;-68
2024/01/03 04:19:00;;;;;;;2.42;0.40;;;8.00;99.90;;;;;;5075263;28;20068;-66
2024/01/03 04:21:26;;;;;;;3.08;0.43;;;8.00;99.90;;;;;;5074391;28;20032;-66
2024/01/03 04:23:52;;;;;;;1.42;0.30;;;7.90;99.90;;;;;;5068294;28;20033;-66
2024/01/03 04:26:18;;;;;;;4.50;0.30;;;7.90;99.90;;;;;;5067489;28;20029;-65
2024/01/03 04:28:43;;;;;;;0.73;0.32;;;7.90;99.90;;;;;;5066345;28;20048;-66
2024/01/03 04:31:09;;;;;;;1.30;0.50;;;7.80;99.90;;;;;;5077732;28;20639;-66
2024/01/03 04:33:35;;;;;;;1.20;0.35;;;7.90;99.90;;;;;;5087602;28;20085;-66
2024/01/03 04:36:00;;;;;;;1.58;0.40;;;7.90;99.90;;;;;;5074647;28;20033;-65
2024/01/03 04:38:26;;;;;;;0.63;0.22;;;7.90;99.90;;;;;;5074311;28;20165;-66
2024/01/03 04:40:51;;;;;;;0.90;0.43;;;7.90;99.90;;;;;;5079516;28;20037;-67
2024/01/03 04:43:17;;;;;;;2.28;0.70;;;7.90;99.90;;;;;;5084668;28;20036;-65
2024/01/03 04:45:43;;;;;;;3.22;0.38;;;7.90;99.90;;;;;;5081822;28;20545;-67
2024/01/03 04:48:08;;;;;;;1.85;0.60;;;7.90;99.90;;;;;;5068370;28;20028;-68
2024/01/03 04:50:34;;;;;;;3.63;0.45;;;7.90;99.90;;;;;;5088415;28;20076;-65
2024/01/03 04:52:59;;;;;;;2.38;0.32;;;7.90;99.90;;;;;;5087782;28;20034;-67
2024/01/03 04:55:26;;;;;;;3.47;0.60;;;7.90;99.90;;;;;;5086836;28;20217;-70
2024/01/03 04:57:52;;;;;;;2.50;1.27;;;7.90;99.90;;;;;;5069428;28;20044;-71
2024/01/03 05:00:18;;;;;;;4.32;0.60;;;7.90;99.90;;;;;;5072177;28;20040;-70
2024/01/03 05:02:43;;;;;;;2.58;0.50;;;7.90;99.90;;;;;;5088891;28;20044;-70
2024/01/03 05:05:09;;;;;;;5.28;0.60;;;7.90;99.90;;;;;;5090480;28;20422;-70
2024/01/03 05:07:35;;;;;;;4.57;0.40;;;7.90;99.90;;;;;;5091727;28;20028;-72
2024/01/03 05:10:01;;;;;;;3.70;0.47;;;7.80;99.90;;;;;;5091116;28;20114;-73
2024/01/03 05:12:27;;;;;;;2.05;0.50;;;7.80;99.90;;;;;;5077911;28;20047;-70
2024/01/03 05:14:53;;;;;;;4.35;0.70;;;7.80;99.90;;;;;;5081857;28;20033;-67
2024/01/03 05:17:18;;;;;;;0.77;0.38;;;7.80;99.90;;;;;;5085093;28;20035;-68
2024/01/03 05:19:44;;;;;;;1.05;0.35;;;7.80;99.90;;;;;;5090335;28;20386;-68
2024/01/03 05:22:10;;;;;;;1.30;0.60;;;7.80;99.90;;;;;;5080605;28;20020;-68
2024/01/03 05:24:36;;;;;;;1.33;0.30;;;7.90;99.90;;;;;;5073938;28;20116;-68
2024/01/03 05:27:01;;;;;;;1.98;0.55;;;8.00;99.90;;;;;;5071081;28;20493;-67
2024/01/03 05:29:27;;;;;;;1.55;0.47;;;8.10;99.90;;;;;;5070320;28;20199;-70
2024/01/03 05:31:53;;;;;;;1.65;0.40;;;8.10;99.90;;;;;;5079399;28;20040;-72
2024/01/03 05:34:18;;;;;;;2.83;0.50;;;8.20;99.90;;;;;;5077359;28;20035;-71
2024/01/03 05:36:44;;;;;;;1.77;0.60;;;8.20;99.90;;;;;;5070642;28;20048;-71
2024/01/03 05:39:13;;;;;;;2.40;0.50;;;8.10;99.90;;;;;;5069644;28;20037;-72
2024/01/03 05:41:39;;;;;;;2.15;0.40;;;8.10;99.90;;;;;;5076091;28;20032;-71
2024/01/03 05:44:04;;;;;;;2.80;0.60;;;8.10;99.90;;;;;;5091353;28;20104;-72
2024/01/03 05:46:30;;;;;;;1.95;0.80;;;8.10;99.90;;;;;;5090209;28;20027;-72
2024/01/03 05:48:56;;;;;;;1.63;0.55;;;8.00;99.90;;;;;;5088658;28;20039;-72
2024/01/03 05:51:22;;;;;;;1.58;0.50;;;7.90;99.90;;;;;;5086014;28;20038;-71
2024/01/03 05:53:48;;;;;;;1.70;0.52;;;7.90;99.90;;;;;;5080822;28;20028;-70
2024/01/03 05:56:15;;;;;;;2.83;0.55;;;7.90;99.90;;;;;;5069385;28;20463;-70
2024/01/03 05:58:44;;;;;;;1.02;0.40;;;7.90;99.90;;;;;;5068191;28;20470;-69
2024/01/03 06:01:09;;;;;;;1.25;0.50;;;7.90;99.90;;;;;;5080204;28;20685;-70
2024/01/03 06:03:35;;;;;;;3.83;0.60;;;7.90;99.90;;;;;;5099615;28;20023;-70
2024/01/03 06:06:01;;;;;;;2.25;0.50;;;7.90;99.90;;;;;;5090790;28;20038;-72
2024/01/03 06:08:26;;;;;;;2.08;0.57;;;7.90;99.90;;;;;;5091905;28;20031;-69
2024/01/03 06:10:52;;;;;;;1.10;0.45;;;7.80;99.90;;;;;;5095692;28;20028;-70
2024/01/03 06:13:17;;;;;;;2.75;0.77;;;7.80;99.90;;;;;;5088943;28;20055;-73
2024/01/03 06:15:43;;;;;;;3.83;1.02;;;7.80;99.90;;;;;;5090197;28;20111;-71
2024/01/03 06:18:10;;;;;;;1.15;0.52;;;7.80;99.90;;;;;;5091219;28;20064;-70
2024/01/03 06:20:36;;;;;;;2.38;0.68;;;7.80;99.90;;;;;;5099203;28;20034;-70
2024/01/03 06:23:02;;;;;;;2.03;0.50;;;7.80;99.90;;;;;;5090534;28;20388;-70
2024/01/03 06:25:27;;;;;;;1.20;0.40;;;7.80;99.90;;;;;;5108127;28;20506;-70
2024/01/03 06:27:55;;;;;;;2.38;0.85;;;7.80;99.90;;;;;;5089970;28;20032;-70
2024/01/03 06:30:21;;;;;;;2.78;0.52;;;7.90;99.90;;;;;;5095936;28;20548;-70
2024/01/03 06:32:47;;;;;;;2.33;0.57;;;7.90;99.90;;;;;;5110471;28;20031;-70
2024/01/03 06:35:12;;;;;;;3.60;0.90;;;7.90;99.90;;;;;;5093619;28;20094;-70
2024/01/03 06:37:39;;;;;;;2.53;0.60;;;7.90;99.90;;;;;;5090457;28;20043;-71
2024/01/03 06:40:05;;;;;;;3.03;0.68;;;7.80;99.90;;;;;;5092723;28;20031;-71
2024/01/03 06:42:31;;;;;;;3.10;0.88;;;7.80;99.90;;;;;;5107903;28;20023;-71
2024/01/03 06:44:56;;;;;;;3.40;0.73;;;7.80;99.90;;;;;;5110160;28;20472;-70
2024/01/03 06:47:22;;;;;;;5.63;0.70;;;7.70;99.90;;;;;;5104861;28;20069;-71
2024/01/03 06:49:48;;;;;;;2.95;0.80;;;7.70;99.90;;;;;;5098035;28;20043;-71
2024/01/03 06:52:13;;;;;;;4.88;0.85;;;7.60;99.90;;;;;;5094569;28;20034;-71
2024/01/03 06:54:39;;;;;;;3.88;0.73;;;7.70;99.90;;;;;;5097719;28;20546;-71
2024/01/03 06:57:04;;;;;;;5.47;1.00;;;7.80;99.90;;;;;;5098077;28;20059;-71
2024/01/03 06:59:35;;;;;;;2.47;0.68;;;7.70;99.90;;;;;;5108441;28;20050;-70
2024/01/03 07:02:00;;;;;;;5.00;0.85;;;7.80;99.90;;;;;;5092190;28;20040;-70
2024/01/03 07:04:26;;;;;;;4.13;0.80;;;7.70;99.90;;;;;;5088711;28;20036;-71
2024/01/03 07:06:51;;;;;;;2.25;0.80;;;7.70;99.90;;;;;;5089560;28;20570;-71
2024/01/03 07:09:17;;;;;;;4.22;1.10;;;7.80;99.90;;;;;;5088250;28;20028;-72
2024/01/03 07:11:42;;;;;;;5.28;1.13;;;7.80;99.90;;;;;;5088391;28;20039;-71
2024/01/03 07:14:12;;;;;;;2.55;0.60;;;7.70;99.90;;;;;;5085202;28;20031;-70
2024/01/03 07:16:38;;;;;;;3.60;0.60;;;7.80;99.90;;;;;;5068344;28;20036;-71
2024/01/03 07:19:03;;;;;;;3.45;0.82;;;7.80;99.90;;;;;;5068737;28;20039;-71
2024/01/03 07:21:29;;;;;;;2.35;0.50;;;7.80;99.90;;;;;;5080845;28;20036;-70
2024/01/03 07:23:55;;;;;;;4.55;0.60;;;7.80;99.90;;;;;;5088224;28;20028;-70
2024/01/03 07:26:20;;;;;;;3.13;0.80;;;7.80;99.90;;;;;;5086104;28;20177;-72
2024/01/03 07:28:46;;;;;;;3.22;0.73;;;7.80;99.90;;;;;;5088750;28;20067;-71
2024/01/03 07:31:11;;;;;;;2.83;0.57;;;7.90;99.90;;;;;;5088246;28;20054;-71
2024/01/03 07:33:39;;;;;;;3.65;0.80;;;8.00;99.90;;;;;;5088089;28;20250;-72
2024/01/03 07:36:05;;;;;;;2.45;0.68;;;8.00;99.90;;;;;;5088836;28;20024;-70
2024/01/03 07:38:31;;;;;;;2.38;0.70;;;8.10;99.90;;;;;;5082185;28;20441;-71
2024/01/03 07:40:56;;;;;;;1.50;0.45;;;8.20;99.90;;;;;;5070480;28;20040;-71
2024/01/03 07:43:22;;;;;;;2.67;0.50;;;8.20;99.90;;;;;;5079448;28;20041;-70
2024/01/03 07:45:47;;;;;;;1.83;0.35;;;8.30;99.90;;;;;;5068722;28;20036;-71
2024/01/03 07:48:13;;;;;;;3.28;0.60;;;8.30;99.90;;;;;;5068484;28;20090;-72
2024/01/03 07:50:39;;;;;;;4.35;0.57;;;8.40;99.90;;;;;;5072494;28;20387;-69
2024/01/03 07:53:06;;;;;;;4.28;0.63;;;8.50;99.90;;;;;;5088456;28;20047;-73
2024/01/03 07:55:32;;;;;;;3.22;0.55;;;8.60;99.90;;;;;;5068273;28;20024;-71
2024/01/03 07:57:58;;;;;;;1.60;0.45;;;8.60;99.90;;;;;;5082616;28;20375;-72
2024/01/03 08:00:23;;;;;;;2.72;0.50;;;8.70;99.90;;;;;;5084955;28;20063;-70
2024/01/03 08:02:49;;;;;;;2.35;0.82;;;8.70;99.90;;;;;;5089000;28;20031;-71
2024/01/03 08:05:14;;;;;;;1.77;0.30;;;8.60;99.90;;;;;;5077945;28;20086;-71
2024/01/03 08:07:40;;;;;;;3.83;0.50;;;8.70;99.90;;;;;;5073995;28;20074;-71
2024/01/03 08:10:06;;;;;;;5.40;0.52;;;8.80;99.90;;;;;;5068501;28;20047;-71
2024/01/03 08:12:33;;;;;;;2.38;0.50;;;8.80;99.90;;;;;;5048397;28;20144;-71
2024/01/03 08:14:59;;;;;;;5.30;0.55;;;8.90;99.90;;;;;;5068225;28;20021;-71
2024/01/03 08:17:26;;;;;;;6.50;1.02;;;8.90;99.90;;;;;;5049217;28;20039;-72
2024/01/03 08:19:51;;;;;;;6.25;0.50;;;8.90;99.90;;;;;;5072047;28;20028;-69
2024/01/03 08:22:17;;;;;;;4.20;1.00;;;9.00;99.90;;;;;;5059008;28;20036;-68
2024/01/03 08:24:43;;;;;;;3.63;0.80;;;9.00;99.90;;;;;;5067810;28;20024;-68
2024/01/03 08:27:09;;;;;;;1.90;0.73;;;9.20;99.90;;;;;;5080706;28;20028;-71
2024/01/03 08:29:37;;;;;;;2.40;0.60;;;9.20;99.90;;;;;;5067651;28;20498;-72
2024/01/03 08:32:03;;;;;;;1.27;0.35;;;9.10;99.90;;;;;;5081845;28;20043;-72
2024/01/03 08:34:28;;;;;;;1.20;0.60;;;9.10;99.90;;;;;;5087479;28;20490;-71
2024/01/03 08:36:54;;;;;;;1.45;0.30;;;9.10;99.90;;;;;;5092583;28;20035;-71
2024/01/03 08:39:20;;;;;;;5.65;0.82;;;9.30;99.90;;;;;;5070570;28;20123;-72
2024/01/03 08:41:47;;;;;;;2.63;0.40;;;9.40;99.90;;;;;;5085151;28;20044;-72
2024/01/03 08:44:13;;;;;;;6.25;0.47;;;9.60;99.90;;;;;;5092330;28;20117;-72
2024/01/03 08:46:40;;;;;;;3.83;0.50;;;9.70;99.90;;;;;;5089601;28;20028;-70
2024/01/03 08:49:07;;;;;;;2.45;0.45;;;9.80;99.90;;;;;;5089048;28;20024;-71
2024/01/03 08:51:32;;;;;;;4.55;0.50;;;9.80;99.90;;;;;;5053066;28;20040;-70
2024/01/03 08:53:58;;;;;;;3.40;0.65;;;9.80;99.90;;;;;;5071562;28;20029;-70
2024/01/03 08:56:24;;;;;;;2.97;0.50;;;9.90;99.90;;;;;;5070789;28;20028;-73
2024/01/03 08:58:50;;;;;;;3.50;0.50;;;9.90;99.90;;;;;;5071631;28;20044;-69
2024/01/03 09:01:17;;;;;;;2.03;0.40;;;9.80;99.90;;;;;;5080028;28;20131;-70
2024/01/03 09:03:43;;;;;;;1.90;0.47;;;9.80;99.90;;;;;;5090999;28;20020;-71
2024/01/03 09:06:09;;;;;;;1.20;0.50;;;9.80;99.90;;;;;;5091206;28;20032;-69
2024/01/03 09:08:34;;;;;;;1.17;0.50;;;9.80;99.90;;;;;;5090076;28;20444;-71
2024/01/03 09:11:00;;;;;;;3.47;0.50;;;9.70;99.90;;;;;;5088176;28;20024;-71
2024/01/03 09:13:26;;;;;;;1.85;0.32;;;9.70;99.90;;;;;;5090610;28;20032;-72
2024/01/03 09:15:52;;;;;;;1.70;0.65;;;9.70;99.90;;;;;;5090947;28;20477;-72
2024/01/03 09:18:18;;;;;;;4.82;0.30;;;9.70;99.90;;;;;;5090419;28;20048;-71
2024/01/03 09:20:43;;;;;;;1.52;0.50;;;9.80;99.90;;;;;;5072158;28;20349;-71
2024/01/03 09:23:09;;;;;;;3.47;0.40;;;9.80;99.90;;;;;;5089382;28;20558;-69
2024/01/03 09:25:35;;;;;;;1.30;0.30;;;9.70;99.90;;;;;;5081972;28;20035;-72
2024/01/03 09:28:00;;;;;;;4.95;0.40;;;9.70;99.90;;;;;;5086788;28;20060;-72
2024/01/03 09:30:26;;;;;;;1.70;0.52;;;9.70;99.90;;;;;;5068651;28;20087;-70
2024/01/03 09:32:53;;;;;;;2.72;0.30;;;9.70;99.90;;;;;;5070873;28;20531;-69
2024/01/03 09:35:19;;;;;;;4.38;0.70;;;9.80;99.90;;;;;;5083097;28;20032;-66
2024/01/03 09:37:45;;;;;;;2.60;0.70;;;9.80;99.90;;;;;;5086117;28;20093;-68
2024/01/03 09:40:12;;;;;;;5.55;0.70;;;9.80;99.90;;;;;;5079871;28;20031;-69
2024/01/03 09:42:38;;;;;;;2.10;0.40;;;9.80;99.90;;;;;;5071412;28;20042;-70
2024/01/03 09:45:05;;;;;;;4.47;0.30;;;9.70;99.90;;;;;;5070803;28;20027;-70
2024/01/03 09:47:30;;;;;;;2.88;0.68;;;9.70;99.90;;;;;;5069026;28;20028;-72
2024/01/03 09:49:56;;;;;;;7.13;0.50;;;9.70;99.90;;;;;;5088279;28;20093;-70
2024/01/03 09:52:22;;;;;;;2.83;0.50;;;9.70;99.90;;;;;;5088732;28;20059;-71
2024/01/03 09:54:49;;;;;;;7.25;0.63;;;9.70;99.90;;;;;;5088552;28;20028;-70
2024/01/03 09:57:18;;;;;;;2.53;0.30;;;9.70;99.90;;;;;;5090451;28;20032;-71
2024/01/03 09:59:44;;;;;;;3.72;0.60;;;9.60;99.90;;;;;;5073973;28;20094;-70
2024/01/03 10:02:11;;;;;;;3.53;0.70;;;9.60;99.90;;;;;;5070269;28;20060;-69
2024/01/03 10:04:37;;;;;;;3.80;0.50;;;9.70;99.90;;;;;;5051344;28;20029;-70
2024/01/03 10:07:03;;;;;;;5.20;0.65;;;9.60;99.90;;;;;;5070437;28;20066;-68
2024/01/03 10:09:56;;;;;;;3.25;0.40;;;9.50;99.90;;;;;;5061920;28;20126;-69
2024/01/03 10:12:22;;;;;;;6.07;0.77;;;9.50;99.90;;;;;;5085926;28;20046;-69
2024/01/03 10:14:47;;;;;;;5.00;0.70;;;9.40;99.90;;;;;;5069662;28;20040;-70
2024/01/03 10:17:13;;;;;;;1.50;0.40;;;9.30;99.90;;;;;;5053166;28;20038;-69
2024/01/03 10:19:39;;;;;;;3.08;0.70;;;9.30;99.90;;;;;;5074815;28;20036;-71
2024/01/03 10:22:04;;;;;;;4.38;0.88;;;9.40;99.90;;;;;;5070075;28;20032;-71
2024/01/03 10:24:33;;;;;;;2.15;0.60;;;9.30;99.90;;;;;;5050683;28;20544;-72
2024/01/03 10:27:11;;;;;;;4.80;1.08;;;9.30;99.90;;;;;;5070679;28;20083;-69
2024/01/03 10:29:38;;;;;;;2.35;0.75;;;9.30;99.90;;;;;;5076245;28;20024;-71
2024/01/03 10:32:09;;;;;;;4.40;0.50;;;9.30;99.90;;;;;;5071730;28;20821;-68
2024/01/03 10:34:35;;;;;;;3.15;0.98;;;9.40;99.90;;;;;;5087638;28;20086;-68
2024/01/03 10:37:02;;;;;;;4.45;0.70;;;9.30;99.90;;;;;;5088568;28;20032;-71
2024/01/03 10:39:30;;;;;;;3.28;0.50;;;9.40;99.90;;;;;;5080156;28;20162;-72
2024/01/03 10:41:58;;;;;;;5.45;0.50;;;9.40;99.90;;;;;;5069058;28;20093;-70
2024/01/03 10:44:23;;;;;;;3.85;0.50;;;9.30;99.90;;;;;;5069476;28;20063;-70
2024/01/03 10:46:54;;;;;;;3.90;0.60;;;9.30;99.90;;;;;;5068591;28;20060;-71
2024/01/03 10:49:20;;;;;;;3.28;0.50;;;9.30;99.90;;;;;;5061861;28;20123;-70
2024/01/03 10:51:51;;;;;;;6.28;0.60;;;9.30;99.90;;;;;;5088988;28;20186;-70
2024/01/03 10:54:20;;;;;;;5.30;0.60;;;9.30;99.90;;;;;;5089739;28;20024;-70
2024/01/03 10:56:50;;;;;;;7.75;0.80;;;9.20;99.90;;;;;;5073697;28;20039;-71
2024/01/03 10:59:17;;;;;;;3.28;0.40;;;9.20;99.90;;;;;;5059259;28;20040;-71
2024/01/03 11:02:06;;;;;;;3.90;1.20;;;9.20;99.90;;;;;;5076708;28;20414;-71
2024/01/03 11:04:47;;;;;;;4.35;0.63;;;9.20;99.90;;;;;;5056967;28;20470;-74
2024/01/03 11:07:53;;;;;;;3.92;0.57;;;9.30;99.90;;;;;;5078106;28;20826;-72
2024/01/03 11:10:52;;;;;;;7.15;0.85;;;9.20;99.90;;;;;;5082462;28;20056;-72
2024/01/03 11:13:38;;;;;;;4.85;0.50;;;9.30;99.90;;;;;;5082740;28;20035;-73
2024/01/03 11:16:05;;;;;;;7.63;0.93;;;9.30;99.90;;;;;;5073293;28;20070;-70
2024/01/03 11:18:40;;;;;;;5.25;0.57;;;9.30;99.90;;;;;;5056605;28;20028;-72
2024/01/03 11:21:26;;;;;;;3.35;0.70;;;9.40;99.90;;;;;;5077794;28;20591;-70
2024/01/03 11:23:52;;;;;;;2.45;0.60;;;9.40;99.90;;;;;;5071738;28;20130;-72
2024/01/03 11:26:18;;;;;;;6.75;0.80;;;9.50;99.90;;;;;;5056040;28;20032;-71
2024/01/03 11:28:50;;;;;;;4.93;0.75;;;9.60;99.90;;;;;;5059629;28;20042;-70
2024/01/03 11:31:54;;;;;;;5.05;0.40;;;9.70;99.90;;;;;;5066448;28;20048;-70
2024/01/03 11:34:45;;;;;;;2.10;0.80;;;9.80;99.90;;;;;;5086923;28;20032;-71
2024/01/03 11:37:11;;;;;;;1.65;0.40;;;9.80;99.90;;;;;;5088796;28;20496;-69
2024/01/03 11:39:43;;;;;;;3.00;0.50;;;10.00;99.90;;;;;;5087674;28;20078;-69
2024/01/03 11:42:21;;;;;;;1.52;0.47;;;9.90;99.90;;;;;;5087503;28;20386;-71
2024/01/03 11:45:11;;;;;;;1.50;0.43;;;9.90;99.90;;;;;;5066306;28;20028;-71
2024/01/03 11:47:48;;;;;;;6.22;0.43;;;9.90;99.90;;;;;;5081966;28;20549;-70
2024/01/03 11:50:16;;;;;;;2.30;0.50;;;10.10;99.90;;;;;;5085657;28;20067;-69
2024/01/03 11:52:47;;;;;;;7.75;0.70;;;10.10;99.90;;;;;;5059119;28;20039;-69
2024/01/03 11:55:18;;;;;;;2.95;0.80;;;10.10;99.90;;;;;;5086755;28;20367;-70
2024/01/03 11:57:44;;;;;;;;;;;10.10;99.90;;;;;;5084986;28;20032;-69
2024/01/03 12:00:15;;;;;;;4.00;0.60;;;10.00;99.90;;;;;;5087304;28;19915;-72
2024/01/03 12:02:54;;;;;;;4.03;0.35;;;10.00;99.90;;;;;;5078629;28;20036;-69
2024/01/03 12:05:21;;;;;;;1.83;0.30;;;10.30;99.90;;;;;;5087240;28;20036;-71
2024/01/03 12:07:48;;;;;;;4.05;0.52;;;10.40;99.90;;;;;;5083255;28;20036;-71
2024/01/03 12:10:15;;;;;;;5.05;0.43;;;10.80;99.90;;;;;;5091059;28;20047;-71
2024/01/03 12:12:41;;;;;;;2.67;0.32;;;10.90;99.90;;;;;;5088465;28;20055;-68
2024/01/03 12:15:08;;;;;;;2.13;0.32;;;11.00;99.90;;;;;;5088790;28;20036;-69
2024/01/03 12:17:34;;;;;;;2.88;0.38;;;11.00;99.90;;;;;;5089778;28;20028;-69
2024/01/03 12:20:11;;;;;;;0.98;0.30;;;10.70;99.90;;;;;;5091540;28;20085;-68
2024/01/03 12:22:37;;;;;;;1.85;0.38;;;10.60;99.90;;;;;;5091609;28;20097;-73
2024/01/03 12:25:03;;;;;;;1.23;0.20;;;10.50;99.90;;;;;;5087747;28;20032;-70
2024/01/03 12:27:31;;;;;;;2.08;0.50;;;10.40;99.90;;;;;;5087833;28;20032;-71
2024/01/03 12:30:17;;;;;;;3.67;0.25;;;10.30;99.90;;;;;;5092415;28;20027;-71
2024/01/03 12:32:44;;;;;;;7.47;0.40;;;10.30;99.90;;;;;;5075080;28;20138;-70
2024/01/03 12:35:12;;;;;;;3.33;0.40;;;10.30;99.90;;;;;;5084806;28;20054;-68
2024/01/03 12:37:41;;;;;;;3.58;0.50;;;10.40;99.90;;;;;;5070623;28;20113;-70
2024/01/03 12:40:07;;;;;;;3.30;0.30;;;10.40;99.90;;;;;;5083152;28;20032;-67
2024/01/03 12:42:33;;;;;;;3.95;0.50;;;10.40;99.90;;;;;;5070192;28;20028;-68
2024/01/03 12:44:58;;;;;;;9.23;0.77;;;10.30;99.90;;;;;;5088338;28;20501;-68
2024/01/03 12:47:24;;;;;;;1.83;0.30;;;10.40;99.90;;;;;;5088962;28;20099;-72
2024/01/03 12:49:51;;;;;;;3.03;0.63;;;10.30;99.90;;;;;;5087839;28;20024;-72
2024/01/03 12:52:29;;;;;;;3.08;0.60;;;10.30;99.90;;;;;;5090568;28;20024;-73
2024/01/03 12:54:55;;;;;;;3.22;0.57;;;10.30;99.90;;;;;;5089957;28;20106;-73